Latest Weather Observations for Wattamolla

IDN60801

Issued at 4:32 pm EDT Friday 9 December 2016 (issued every 30 minutes, with the page automatically refreshed every 10 minutes)

About weather observations | Map of weather stations | Latest weather observations for NSW | Other Formats
Station Details ID: 066208 Name: WATTAMOLLA AWS Lat: -34.14 Lon: 151.12 Height: 44.0 m
Data from the previous 72 hours. | See also: Recent months for locations in New South Wales
Date/Time
EDT
Temp
°C
App
Temp
°C
Dew
Point
°C
Rel
Hum
%
Delta-T
°C
Wind Press
QNH
hPa
Press
MSL
hPa
Rain since
9am
mm
Dir  Spd
km/h
Gust
km/h
Spd
kts
Gust
kts
09/04:30pm - - - - - SSE 28 32 15 17 - - -
09/04:00pm - - - - - SSE 33 39 18 21 - - -
09/03:30pm - - - - - SSE 26 32 14 17 - - -
09/03:00pm - - - - - SSE 30 35 16 19 - - -
09/02:30pm - - - - - SSE 28 35 15 19 - - -
09/02:00pm - - - - - S 24 30 13 16 - - -
09/01:30pm - - - - - S 17 30 9 16 - - -
09/01:00pm - - - - - SW 19 35 10 19 - - -
09/12:30pm - - - - - W 22 41 12 22 - - -
09/12:23pm - - - - - W 28 48 15 26 - - -
09/12:00pm - - - - - W 22 35 12 19 - - -
09/11:30am - - - - - WSW 22 39 12 21 - - -
09/11:19am - - - - - W 28 46 15 25 - - -
09/11:00am - - - - - W 24 43 13 23 - - -
09/10:30am - - - - - W 26 37 14 20 - - -
09/10:06am - - - - - W 28 50 15 27 - - -
09/10:00am - - - - - W 30 44 16 24 - - -
09/09:30am - - - - - W 33 54 18 29 - - -
09/09:00am - - - - - W 30 50 16 27 - - -
09/08:30am - - - - - WNW 35 59 19 32 - - -
09/08:00am - - - - - WNW 32 52 17 28 - - -
09/07:46am - - - - - WNW 28 50 15 27 - - -
09/07:30am - - - - - W 28 44 15 24 - - -
09/07:21am - - - - - W 28 48 15 26 - - -
09/07:00am - - - - - WSW 19 32 10 17 - - -
09/06:30am - - - - - W 17 30 9 16 - - -
09/06:00am - - - - - WSW 19 28 10 15 - - -
09/05:30am - - - - - WSW 15 22 8 12 - - -
09/05:00am - - - - - WSW 17 24 9 13 - - -
09/04:30am - - - - - WSW 15 20 8 11 - - -
09/04:00am - - - - - WSW 19 26 10 14 - - -
09/03:30am - - - - - SW 20 39 11 21 - - -
09/03:00am - - - - - WSW 20 28 11 15 - - -
09/02:30am - - - - - WSW 19 26 10 14 - - -
09/02:00am - - - - - W 19 30 10 16 - - -
09/01:30am - - - - - W 17 30 9 16 - - -
09/01:00am - - - - - WSW 24 44 13 24 - - -
09/12:30am - - - - - W 32 50 17 27 - - -
09/12:23am - - - - - W 30 50 16 27 - - -
09/12:00am - - - - - WNW 26 41 14 22 - - -
 
Date/Time
EDT
Temp
°C
App
Temp
°C
Dew
Point
°C
Rel
Hum
%
Delta-T
°C
Wind Press
QNH
hPa
Press
MSL
hPa
Rain since
9am
mm
Dir  Spd
km/h
Gust
km/h
Spd
kts
Gust
kts
08/11:30pm - - - - - NW 11 17 6 9 - - -
08/11:00pm - - - - - NW 17 30 9 16 - - -
08/10:30pm - - - - - W 15 28 8 15 - - -
08/10:00pm - - - - - WSW 9 13 5 7 - - -
08/09:30pm - - - - - SSW 15 22 8 12 - - -
08/09:00pm - - - - - SSW 17 28 9 15 - - -
08/08:30pm - - - - - N 24 33 13 18 - - -
08/08:00pm - - - - - NNE 30 39 16 21 - - -
08/07:30pm - - - - - NNE 28 39 15 21 - - -
08/07:00pm - - - - - NNE 30 43 16 23 - - -
08/06:35pm - - - - - NNE 32 50 17 27 - - -
08/06:30pm - - - - - NNE 33 50 18 27 - - -
08/06:00pm - - - - - NNE 37 56 20 30 - - -
08/05:45pm - - - - - NNE 37 59 20 32 - - -
08/05:30pm - - - - - NNE 32 46 17 25 - - -
08/05:05pm - - - - - NNE 28 46 15 25 - - -
08/05:00pm - - - - - NNE 30 46 16 25 - - -
08/04:30pm - - - - - NNE 33 52 18 28 - - -
08/04:21pm - - - - - NNE 30 48 16 26 - - -
08/04:00pm - - - - - NNE 32 46 17 25 - - -
08/03:30pm - - - - - NE 32 39 17 21 - - -
08/03:00pm - - - - - NE 30 44 16 24 - - -
08/02:30pm - - - - - NE 32 46 17 25 - - -
08/02:00pm - - - - - NE 33 48 18 26 - - -
08/01:43pm - - - - - NE 30 50 16 27 - - -
08/01:30pm - - - - - NE 30 41 16 22 - - -
08/01:00pm - - - - - NE 30 39 16 21 - - -
08/12:30pm - - - - - NE 30 41 16 22 - - -
08/12:00pm - - - - - NE 28 37 15 20 - - -
08/11:30am - - - - - NE 32 41 17 22 - - -
08/11:00am - - - - - NE 26 35 14 19 - - -
08/10:30am - - - - - NE 26 37 14 20 - - -
08/10:00am - - - - - NE 24 35 13 19 - - -
08/09:30am - - - - - NE 13 26 7 14 - - -
08/09:00am - - - - - N 13 20 7 11 - - -
08/08:30am - - - - - N 17 28 9 15 - - -
08/08:00am - - - - - N 15 19 8 10 - - -
08/07:30am - - - - - N 22 30 12 16 - - -
08/07:00am - - - - - N 19 28 10 15 - - -
08/06:30am - - - - - N 19 26 10 14 - - -
08/06:00am - - - - - NNW 17 22 9 12 - - -
08/05:30am - - - - - N 13 17 7 9 - - -
08/05:00am - - - - - N 11 13 6 7 - - -
08/04:30am - - - - - N 11 13 6 7 - - -
08/04:00am - - - - - NNW 7 9 4 5 - - -
08/03:30am - - - - - NNW 11 15 6 8 - - -
08/03:00am - - - - - N 17 20 9 11 - - -
08/02:30am - - - - - NNW 15 20 8 11 - - -
08/02:00am - - - - - N 17 26 9 14 - - -
08/01:30am - - - - - N 17 24 9 13 - - -
08/01:00am - - - - - N 20 30 11 16 - - -
08/12:30am - - - - - N 22 30 12 16 - - -
08/12:00am - - - - - NNE 22 35 12 19 - - -
 
Date/Time
EDT
Temp
°C
App
Temp
°C
Dew
Point
°C
Rel
Hum
%
Delta-T
°C
Wind Press
QNH
hPa
Press
MSL
hPa
Rain since
9am
mm
Dir  Spd
km/h
Gust
km/h
Spd
kts
Gust
kts
07/11:30pm - - - - - NNE 22 33 12 18 - - -
07/11:00pm - - - - - NNE 22 32 12 17 - - -
07/10:30pm - - - - - NNE 19 30 10 16 - - -
07/10:00pm - - - - - NNE 19 30 10 16 - - -
07/09:30pm - - - - - NNE 17 28 9 15 - - -
07/09:00pm - - - - - NNE 17 28 9 15 - - -
07/08:30pm - - - - - NE 20 32 11 17 - - -
07/08:00pm - - - - - NE 20 30 11 16 - - -
07/07:30pm - - - - - NNE 22 32 12 17 - - -
07/07:00pm - - - - - NE 19 32 10 17 - - -
07/06:30pm - - - - - NE 20 32 11 17 - - -
07/06:00pm - - - - - NE 17 30 9 16 - - -
07/05:30pm - - - - - NE 17 26 9 14 - - -
07/05:00pm - - - - - ENE 17 22 9 12 - - -
07/04:30pm - - - - - ENE 15 26 8 14 - - -
07/04:00pm - - - - - ENE 15 22 8 12 - - -
07/03:30pm - - - - - ESE 15 20 8 11 - - -
07/03:00pm - - - - - SE 15 22 8 12 - - -
07/02:30pm - - - - - SE 19 24 10 13 - - -
07/02:00pm - - - - - SE 17 24 9 13 - - -
07/01:30pm - - - - - SE 20 28 11 15 - - -
07/01:00pm - - - - - SSE 26 28 14 15 - - -
07/12:30pm - - - - - SSE 24 28 13 15 - - -
07/12:00pm - - - - - SE 17 20 9 11 - - -
07/11:30am - - - - - SSE 19 22 10 12 - - -
07/11:00am - - - - - SE 19 20 10 11 - - -
07/10:30am - - - - - SE 20 26 11 14 - - -
07/10:00am - - - - - SE 19 22 10 12 - - -
07/09:30am - - - - - SSE 22 28 12 15 - - -
07/09:00am - - - - - SSE 24 28 13 15 - - -
07/08:30am - - - - - SSE 24 30 13 16 - - -
07/08:00am - - - - - SSE 26 32 14 17 - - -
07/07:30am - - - - - SSE 30 35 16 19 - - -
07/07:00am - - - - - SSE 30 35 16 19 - - -
07/06:30am - - - - - SSE 32 39 17 21 - - -
07/06:00am - - - - - SE 30 33 16 18 - - -
07/05:30am - - - - - SSE 33 39 18 21 - - -
07/05:00am - - - - - SSE 33 39 18 21 - - -
07/04:30am - - - - - SSE 22 30 12 16 - - -
07/04:00am - - - - - SSE 22 30 12 16 - - -
07/03:30am - - - - - SSE 19 28 10 15 - - -
07/03:00am - - - - - SSE 22 32 12 17 - - -
07/02:30am - - - - - SSE 22 33 12 18 - - -
07/02:00am - - - - - SSE 30 39 16 21 - - -
07/01:37am - - - - - S 30 48 16 26 - - -
07/01:30am - - - - - S 35 48 19 26 - - -
07/01:00am - - - - - S 35 41 19 22 - - -
07/12:30am - - - - - S 39 44 21 24 - - -
07/12:00am - - - - - S 37 44 20 24 - - -
 
Date/Time
EDT
Temp
°C
App
Temp
°C
Dew
Point
°C
Rel
Hum
%
Delta-T
°C
Wind Press
QNH
hPa
Press
MSL
hPa
Rain since
9am
mm
Dir  Spd
km/h
Gust
km/h
Spd
kts
Gust
kts
06/11:30pm - - - - - S 30 37 16 20 - - -
06/11:00pm - - - - - S 20 32 11 17 - - -
06/10:30pm - - - - - S 26 37 14 20 - - -
06/10:00pm - - - - - SW 20 41 11 22 - - -
06/09:30pm - - - - - WNW 22 30 12 16 - - -
06/09:00pm - - - - - NW 26 35 14 19 - - -
06/08:30pm - - - - - NW 28 39 15 21 - - -
06/08:00pm - - - - - NW 22 30 12 16 - - -
06/07:30pm - - - - - NW 17 22 9 12 - - -
06/07:00pm - - - - - NW 15 24 8 13 - - -
06/06:30pm - - - - - NNW 11 15 6 8 - - -
06/06:00pm - - - - - N 2 9 1 5 - - -
06/05:30pm - - - - - CALM 0 0 0 0 - - -
06/05:00pm - - - - - WNW 7 9 4 5 - - -

Other Formats:

Comma delimited format used in spreadsheet applications
http://www.bom.gov.au/fwo/IDN60801/IDN60801.95752.axf

JavaScript Object Notation format (JSON) in row-major order
http://www.bom.gov.au/fwo/IDN60801/IDN60801.95752.json